createdAt,value
2019-03-28T00:01:01.192Z,74.12
2019-03-28T00:07:05.837Z,74.58
2019-03-28T00:13:10.559Z,75.72
2019-03-28T00:19:15.178Z,76.08
2019-03-28T00:25:20.181Z,76.51
2019-03-28T00:31:24.755Z,77.36
2019-03-28T00:37:29.326Z,77.75
2019-03-28T00:43:34.009Z,79.03
2019-03-28T00:49:38.589Z,79.28
2019-03-28T00:55:43.244Z,79.06
2019-03-28T01:01:47.918Z,79.78
2019-03-28T01:07:52.583Z,79.77
2019-03-28T01:13:57.158Z,80.77
2019-03-28T01:20:01.767Z,80.79
2019-03-28T01:26:06.442Z,80.58
2019-03-28T01:32:11.087Z,80.86
2019-03-28T01:38:15.753Z,81.57
2019-03-28T01:44:20.328Z,81.32
2019-03-28T01:50:24.950Z,81.44
2019-03-28T01:56:29.519Z,81.68
2019-03-28T02:02:34.175Z,81.44
2019-03-28T02:08:38.844Z,82.38
2019-03-28T02:14:43.433Z,82.40
2019-03-28T02:20:48.046Z,82.68
2019-03-28T02:26:52.620Z,82.79
2019-03-28T02:32:57.208Z,83.40
2019-03-28T02:39:01.818Z,83.72
2019-03-28T02:45:08.119Z,83.52
2019-03-28T02:51:12.745Z,83.91
2019-03-28T02:57:17.347Z,83.56
2019-03-28T03:03:21.947Z,83.80
2019-03-28T03:09:26.562Z,84.03
2019-03-28T03:15:31.286Z,83.95
2019-03-28T03:21:36.054Z,84.16
2019-03-28T03:27:56.163Z,84.41
2019-03-28T03:33:47.336Z,84.79
2019-03-28T03:39:51.951Z,85.71
2019-03-28T03:45:56.540Z,86.00
2019-03-28T03:52:01.178Z,85.96
2019-03-28T03:58:15.617Z,86.15
2019-03-28T04:04:12.221Z,85.86
2019-03-28T04:10:16.817Z,86.04
2019-03-28T04:16:21.451Z,86.55
2019-03-28T04:22:26.034Z,88.15
2019-03-28T04:28:32.574Z,88.40
2019-03-28T04:34:36.959Z,89.56
2019-03-28T04:40:41.619Z,89.47
2019-03-28T04:46:46.190Z,89.78
2019-03-28T04:52:52.903Z,90.36
2019-03-28T04:58:57.133Z,90.32
2019-03-28T05:05:01.695Z,90.92
2019-03-28T05:11:07.300Z,90.98
2019-03-28T05:17:11.898Z,91.29
2019-03-28T05:23:16.480Z,91.57
2019-03-28T05:29:22.052Z,90.64
2019-03-28T05:35:26.645Z,90.84
2019-03-28T05:41:31.232Z,90.56
2019-03-28T05:47:35.822Z,90.57
2019-03-28T05:53:40.465Z,90.75
2019-03-28T05:59:45.370Z,90.17
2019-03-28T06:05:50.097Z,90.38
2019-03-28T06:11:54.832Z,90.35
2019-03-28T06:17:59.454Z,89.90
2019-03-28T06:24:04.049Z,89.61
2019-03-28T06:30:10.435Z,88.83
2019-03-28T06:36:15.015Z,86.99
2019-03-28T06:42:19.617Z,87.12
2019-03-28T06:48:24.208Z,87.22
2019-03-28T06:54:28.810Z,85.99
2019-03-28T07:00:33.485Z,85.48
2019-03-28T07:06:38.095Z,85.76
2019-03-28T07:12:42.687Z,85.71
2019-03-28T07:18:47.366Z,84.48
2019-03-28T07:24:51.962Z,84.69
2019-03-28T07:30:56.562Z,83.22
2019-03-28T07:37:01.136Z,82.78
2019-03-28T07:43:05.792Z,84.76
2019-03-28T07:49:10.375Z,85.59
2019-03-28T07:55:16.697Z,84.48
2019-03-28T08:01:21.458Z,84.21
2019-03-28T08:07:26.054Z,84.60
2019-03-28T08:13:30.687Z,83.68
2019-03-28T08:19:35.274Z,82.99
2019-03-28T08:25:40.069Z,82.13
2019-03-28T08:31:46.590Z,82.02
2019-03-28T08:37:51.324Z,82.34
2019-03-28T08:43:55.924Z,79.80
2019-03-28T08:50:00.528Z,79.58
2019-03-28T08:56:05.118Z,80.32
2019-03-28T09:02:09.770Z,76.48
2019-03-28T09:08:14.364Z,76.12
2019-03-28T09:14:18.958Z,77.49
2019-03-28T09:20:23.618Z,76.74
2019-03-28T09:26:28.287Z,76.79
2019-03-28T09:32:33.045Z,69.40
2019-03-28T09:38:37.639Z,57.60
2019-03-28T09:44:42.225Z,53.96
2019-03-28T09:50:46.817Z,54.05
2019-03-28T09:56:51.430Z,53.17
2019-03-28T10:02:56.079Z,55.28
2019-03-28T10:09:00.738Z,56.48
2019-03-28T10:15:08.050Z,58.20
2019-03-28T10:21:12.716Z,54.04
2019-03-28T10:27:19.195Z,55.10
2019-03-28T10:33:24.538Z,57.51
2019-03-28T10:39:29.421Z,45.86
2019-03-28T10:45:34.138Z,50.25
2019-03-28T10:51:38.807Z,55.92
2019-03-28T10:57:43.437Z,51.03
2019-03-28T11:03:48.809Z,51.36
2019-03-28T11:09:53.408Z,55.89
2019-03-28T11:15:58.019Z,58.12
2019-03-28T11:22:02.605Z,61.18
2019-03-28T11:28:07.365Z,61.86
2019-03-28T11:34:12.067Z,58.48
2019-03-28T11:40:16.895Z,60.33
2019-03-28T11:46:21.493Z,55.38
2019-03-28T11:52:26.075Z,54.73
2019-03-28T11:58:30.690Z,57.67
2019-03-28T12:04:38.541Z,58.15
2019-03-28T12:10:41.675Z,59.75
2019-03-28T12:16:46.273Z,61.53
2019-03-28T12:22:55.754Z,62.64
2019-03-28T12:28:58.782Z,61.37
2019-03-28T12:35:03.371Z,58.65
2019-03-28T12:41:08.041Z,58.60
2019-03-28T12:47:12.706Z,59.71
2019-03-28T12:53:17.300Z,60.48
2019-03-28T12:59:21.892Z,60.64
2019-03-28T13:05:26.482Z,61.41
2019-03-28T13:11:31.069Z,61.72
2019-03-28T13:17:35.680Z,61.57
2019-03-28T13:23:40.364Z,59.50
2019-03-28T13:29:44.975Z,60.72
2019-03-28T13:35:49.547Z,59.83
2019-03-28T13:41:54.192Z,59.93
2019-03-28T13:47:58.753Z,59.66
2019-03-28T13:54:03.307Z,60.24
2019-03-28T14:00:10.678Z,59.60
2019-03-28T14:06:15.310Z,58.30
2019-03-28T14:12:23.332Z,57.74
2019-03-28T14:18:27.187Z,58.43
2019-03-28T14:24:31.757Z,58.17
2019-03-28T14:30:39.408Z,58.67
2019-03-28T14:36:42.619Z,60.24
2019-03-28T14:42:47.169Z,60.00
2019-03-28T14:48:51.780Z,61.05
2019-03-28T14:54:56.474Z,60.50
2019-03-28T15:01:01.108Z,62.12
2019-03-28T15:07:07.373Z,61.55
2019-03-28T15:13:12.186Z,61.59
2019-03-28T15:19:16.765Z,62.34
2019-03-28T15:25:21.399Z,63.38
2019-03-28T15:31:26.042Z,63.68
2019-03-28T15:37:30.624Z,64.09
2019-03-28T15:43:35.269Z,64.62
2019-03-28T15:49:39.888Z,64.43
2019-03-28T15:55:44.472Z,64.74
2019-03-28T16:01:49.107Z,65.39
2019-03-28T16:07:59.295Z,64.88
2019-03-28T16:14:03.418Z,65.85
2019-03-28T16:20:09.282Z,65.93
2019-03-28T16:26:13.909Z,66.06
2019-03-28T16:32:18.541Z,66.14
2019-03-28T16:38:23.098Z,67.23
2019-03-28T16:44:27.718Z,67.69
2019-03-28T16:50:32.290Z,67.61
2019-03-28T16:56:36.948Z,67.13
2019-03-28T17:02:41.768Z,67.87
2019-03-28T17:08:46.881Z,67.62
2019-03-28T17:14:51.801Z,68.56
2019-03-28T17:20:57.315Z,69.54
2019-03-28T17:27:01.959Z,69.65
2019-03-28T17:33:06.542Z,69.82
2019-03-28T17:39:11.118Z,69.88
2019-03-28T17:45:15.688Z,70.57
2019-03-28T17:51:20.323Z,71.45
2019-03-28T17:57:24.915Z,71.92
2019-03-28T18:03:31.360Z,73.35
2019-03-28T18:09:35.887Z,72.99
2019-03-28T18:15:40.707Z,73.26
2019-03-28T18:21:46.044Z,73.96
2019-03-28T18:27:50.753Z,74.97
2019-03-28T18:33:55.305Z,75.35
2019-03-28T18:39:59.858Z,75.49
2019-03-28T18:46:04.474Z,75.19
2019-03-28T18:52:09.170Z,75.24
2019-03-28T18:58:13.735Z,74.43
2019-03-28T19:04:18.297Z,74.01
2019-03-28T19:10:23.006Z,73.77
2019-03-28T19:16:27.592Z,74.27
2019-03-28T19:22:32.211Z,73.53
2019-03-28T19:28:36.765Z,73.83
2019-03-28T19:34:41.406Z,73.77
2019-03-28T19:40:46.039Z,74.66
2019-03-28T19:46:50.667Z,75.11
2019-03-28T19:52:55.297Z,74.48
2019-03-28T19:58:59.873Z,74.71
2019-03-28T20:05:06.215Z,75.02
2019-03-28T20:11:10.939Z,75.82
2019-03-28T20:17:15.755Z,75.80
2019-03-28T20:23:20.329Z,75.96
2019-03-28T20:29:24.938Z,76.54
2019-03-28T20:35:29.562Z,76.55
2019-03-28T20:41:34.180Z,77.36
2019-03-28T20:47:40.410Z,78.25
2019-03-28T20:53:44.990Z,79.18
2019-03-28T20:59:49.646Z,79.11
2019-03-28T21:05:54.326Z,80.00
2019-03-28T21:11:58.972Z,80.64
2019-03-28T21:18:03.622Z,81.42
2019-03-28T21:24:08.192Z,82.63
2019-03-28T21:30:13.220Z,82.42
2019-03-28T21:36:29.105Z,81.55
2019-03-28T21:42:24.070Z,82.52
2019-03-28T21:48:28.640Z,83.57
2019-03-28T21:54:33.264Z,83.61
2019-03-28T22:00:37.891Z,84.37
2019-03-28T22:06:43.407Z,84.21
2019-03-28T22:12:48.264Z,85.03
2019-03-28T22:18:52.905Z,85.25
2019-03-28T22:24:57.528Z,84.77
2019-03-28T22:31:02.144Z,86.41
2019-03-28T22:37:06.694Z,83.75
2019-03-28T22:43:11.246Z,83.39
2019-03-28T22:49:15.823Z,84.56
2019-03-28T22:55:20.391Z,84.81
2019-03-28T23:01:25.112Z,86.48
2019-03-28T23:07:29.670Z,86.87
2019-03-28T23:13:34.332Z,87.35
2019-03-28T23:19:38.888Z,87.18
2019-03-28T23:25:43.448Z,86.59
2019-03-28T23:31:50.655Z,86.42
2019-03-28T23:37:54.350Z,86.39
2019-03-28T23:43:58.913Z,86.06
2019-03-28T23:50:03.661Z,86.28
2019-03-28T23:56:08.208Z,85.85
